createdAt,value
2023-05-18T00:00:02.921Z,3.84
2023-05-18T00:02:29.906Z,3.88
2023-05-18T00:04:57.131Z,3.82
2023-05-18T00:07:24.092Z,3.84
2023-05-18T00:09:51.173Z,3.89
2023-05-18T00:12:18.109Z,3.92
2023-05-18T00:14:45.004Z,3.92
2023-05-18T00:17:11.844Z,3.80
2023-05-18T00:19:38.686Z,3.76
2023-05-18T00:22:08.065Z,3.72
2023-05-18T00:24:36.932Z,3.75
2023-05-18T00:27:04.128Z,3.72
2023-05-18T00:29:30.983Z,3.59
2023-05-18T00:31:57.920Z,3.61
2023-05-18T00:34:24.801Z,3.47
2023-05-18T00:36:51.689Z,3.45
2023-05-18T00:39:18.544Z,3.45
2023-05-18T00:41:45.642Z,3.59
2023-05-18T00:44:12.737Z,3.50
2023-05-18T00:46:39.647Z,3.47
2023-05-18T00:49:06.759Z,3.41
2023-05-18T00:51:34.664Z,3.53
2023-05-18T00:54:03.740Z,3.41
2023-05-18T00:56:34.439Z,3.36
2023-05-18T00:59:03.525Z,3.27
2023-05-18T01:01:36.673Z,3.31
2023-05-18T01:04:04.921Z,3.22
2023-05-18T01:06:33.029Z,3.17
2023-05-18T01:09:07.215Z,3.18
2023-05-18T01:11:41.335Z,3.18
2023-05-18T01:14:34.620Z,3.13
2023-05-18T01:18:01.023Z,3.10
2023-05-18T01:20:57.721Z,2.98
2023-05-18T01:23:47.454Z,2.89
2023-05-18T01:26:18.198Z,2.87
2023-05-18T01:28:46.762Z,2.81
2023-05-18T01:31:16.464Z,2.88
2023-05-18T01:33:44.932Z,2.88
2023-05-18T01:36:11.802Z,2.79
2023-05-18T01:38:41.643Z,2.83
2023-05-18T01:41:27.914Z,2.78
2023-05-18T01:44:24.974Z,2.72
2023-05-18T01:47:17.386Z,2.61
2023-05-18T01:50:06.817Z,2.61
2023-05-18T01:52:41.202Z,2.57
2023-05-18T01:55:10.326Z,2.57
2023-05-18T01:57:39.723Z,2.60
2023-05-18T02:00:09.970Z,2.53
2023-05-18T02:02:37.029Z,2.59
2023-05-18T02:05:05.759Z,2.64
2023-05-18T02:07:32.602Z,2.57
2023-05-18T02:09:59.465Z,2.51
2023-05-18T02:12:26.345Z,2.49
2023-05-18T02:14:53.241Z,2.61
2023-05-18T02:17:20.235Z,2.62
2023-05-18T02:19:47.068Z,2.48
2023-05-18T02:22:14.420Z,2.43
2023-05-18T02:24:41.262Z,2.49
2023-05-18T02:27:08.177Z,2.54
2023-05-18T02:29:35.091Z,2.58
2023-05-18T02:32:01.992Z,2.46
2023-05-18T02:34:32.224Z,2.37
2023-05-18T02:37:04.230Z,2.29
2023-05-18T02:39:31.647Z,2.25
2023-05-18T02:41:58.562Z,2.23
2023-05-18T02:44:25.557Z,2.21
2023-05-18T02:46:52.416Z,2.27
2023-05-18T02:49:19.298Z,2.52
2023-05-18T02:51:46.164Z,2.50
2023-05-18T02:54:13.072Z,2.66
2023-05-18T02:56:41.728Z,2.68
2023-05-18T02:59:08.993Z,2.62
2023-05-18T03:01:37.900Z,2.42
2023-05-18T03:04:04.874Z,2.36
2023-05-18T03:06:31.763Z,2.23
2023-05-18T03:08:59.260Z,2.13
2023-05-18T03:11:29.200Z,2.09
2023-05-18T03:13:56.125Z,2.07
2023-05-18T03:16:28.469Z,2.06
2023-05-18T03:18:56.048Z,1.96
2023-05-18T03:21:23.417Z,1.92
2023-05-18T03:23:51.187Z,1.93
2023-05-18T03:26:18.747Z,1.81
2023-05-18T03:28:45.925Z,1.81
2023-05-18T03:31:12.861Z,1.73
2023-05-18T03:33:39.752Z,1.67
2023-05-18T03:36:07.168Z,1.72
2023-05-18T03:38:34.115Z,1.77
2023-05-18T03:41:01.042Z,1.72
2023-05-18T03:43:29.723Z,1.77
2023-05-18T03:45:56.802Z,1.85
2023-05-18T03:48:24.936Z,1.81
2023-05-18T03:50:51.835Z,1.91
2023-05-18T03:53:19.500Z,1.90
2023-05-18T03:55:49.471Z,1.96
2023-05-18T03:58:16.562Z,2.07
2023-05-18T04:00:43.415Z,2.11
2023-05-18T04:03:14.855Z,2.11
2023-05-18T04:05:46.193Z,2.18
2023-05-18T04:08:16.105Z,2.15
2023-05-18T04:10:43.802Z,2.26
2023-05-18T04:13:11.121Z,2.34
2023-05-18T04:15:38.676Z,2.46
2023-05-18T04:18:05.793Z,2.43
2023-05-18T04:20:32.773Z,2.44
2023-05-18T04:22:59.623Z,2.53
2023-05-18T04:25:29.580Z,2.55
2023-05-18T04:27:57.554Z,2.73
2023-05-18T04:30:29.770Z,2.74
2023-05-18T04:32:58.490Z,2.87
2023-05-18T04:35:26.914Z,3.19
2023-05-18T04:37:54.766Z,3.11
2023-05-18T04:40:21.731Z,3.16
2023-05-18T04:42:49.066Z,3.22
2023-05-18T04:45:23.089Z,3.35
2023-05-18T04:47:54.332Z,3.44
2023-05-18T04:50:26.206Z,3.51
2023-05-18T04:52:54.081Z,3.61
2023-05-18T04:55:26.511Z,3.82
2023-05-18T04:57:57.623Z,3.98
2023-05-18T05:00:26.555Z,4.12
2023-05-18T05:02:54.024Z,4.21
2023-05-18T05:05:22.362Z,4.21
2023-05-18T05:07:53.682Z,4.24
2023-05-18T05:10:21.801Z,4.42
2023-05-18T05:12:51.146Z,4.52
2023-05-18T05:15:18.952Z,4.54
2023-05-18T05:17:49.846Z,4.67
2023-05-18T05:20:17.681Z,4.76
2023-05-18T05:22:44.640Z,4.83
2023-05-18T05:25:11.947Z,4.89
2023-05-18T05:27:38.849Z,5.00
2023-05-18T05:30:06.860Z,5.09
2023-05-18T05:32:33.857Z,5.26
2023-05-18T05:35:00.898Z,5.20
2023-05-18T05:37:28.158Z,5.38
2023-05-18T05:39:55.043Z,5.56
2023-05-18T05:42:22.195Z,5.65
2023-05-18T05:44:49.082Z,5.82
2023-05-18T05:47:16.539Z,5.99
2023-05-18T05:49:43.416Z,6.16
2023-05-18T05:52:10.273Z,6.29
2023-05-18T05:54:37.165Z,6.47
2023-05-18T05:57:04.295Z,6.57
2023-05-18T05:59:31.362Z,6.72
2023-05-18T06:01:58.519Z,6.94
2023-05-18T06:04:25.594Z,7.11
2023-05-18T06:06:52.542Z,7.21
2023-05-18T06:09:19.433Z,7.35
2023-05-18T06:11:46.358Z,7.57
2023-05-18T06:14:13.373Z,7.79
2023-05-18T06:16:40.351Z,7.92
2023-05-18T06:19:07.384Z,8.03
2023-05-18T06:21:34.459Z,8.14
2023-05-18T06:24:01.662Z,8.22
2023-05-18T06:26:28.632Z,8.36
2023-05-18T06:28:55.594Z,8.48
2023-05-18T06:31:22.731Z,8.61
2023-05-18T06:33:49.711Z,8.68
2023-05-18T06:36:17.189Z,8.71
2023-05-18T06:38:44.095Z,8.82
2023-05-18T06:41:11.128Z,8.98
2023-05-18T06:43:37.992Z,9.08
2023-05-18T06:46:04.955Z,9.18
2023-05-18T06:48:31.956Z,9.25
2023-05-18T06:50:58.848Z,9.33
2023-05-18T06:53:26.563Z,9.45
2023-05-18T06:55:53.480Z,9.54
2023-05-18T06:58:21.048Z,9.68
2023-05-18T07:00:48.727Z,9.82
2023-05-18T07:03:15.682Z,10.00
2023-05-18T07:05:42.726Z,10.04
2023-05-18T07:08:09.898Z,10.09
2023-05-18T07:10:37.723Z,10.14
2023-05-18T07:13:04.600Z,10.14
2023-05-18T07:15:31.733Z,10.26
2023-05-18T07:17:58.944Z,10.33
2023-05-18T07:20:26.596Z,10.34
2023-05-18T07:22:55.412Z,10.36
2023-05-18T07:25:23.506Z,10.30
2023-05-18T07:27:54.806Z,10.50
2023-05-18T07:30:22.976Z,10.57
2023-05-18T07:32:51.253Z,10.71
2023-05-18T07:35:22.238Z,10.84
2023-05-18T07:37:52.303Z,10.88
2023-05-18T07:40:19.371Z,10.92
2023-05-18T07:42:46.936Z,10.86
2023-05-18T07:45:14.080Z,11.00
2023-05-18T07:47:41.075Z,11.14
2023-05-18T07:50:08.724Z,11.27
2023-05-18T07:52:35.797Z,11.13
2023-05-18T07:55:03.074Z,11.05
2023-05-18T07:57:31.180Z,11.03
2023-05-18T07:59:58.036Z,10.97
2023-05-18T08:02:25.094Z,10.98
2023-05-18T08:04:52.241Z,11.09
2023-05-18T08:07:19.152Z,11.30
2023-05-18T08:09:46.049Z,11.37
2023-05-18T08:12:12.956Z,11.37
2023-05-18T08:14:39.807Z,11.20
2023-05-18T08:17:06.819Z,11.27
2023-05-18T08:19:33.729Z,11.34
2023-05-18T08:22:00.586Z,11.51
2023-05-18T08:24:27.476Z,11.81
2023-05-18T08:26:54.392Z,11.94
2023-05-18T08:29:21.465Z,11.93
2023-05-18T08:31:49.684Z,11.99
2023-05-18T08:34:16.815Z,11.96
2023-05-18T08:36:45.924Z,12.06
2023-05-18T08:39:13.398Z,12.23
2023-05-18T08:41:56.685Z,12.56
2023-05-18T08:44:26.838Z,12.75
2023-05-18T08:46:56.186Z,12.82
2023-05-18T08:49:25.303Z,13.00
2023-05-18T08:51:57.901Z,13.00
2023-05-18T08:54:25.169Z,13.33
2023-05-18T08:56:53.504Z,13.42
2023-05-18T08:59:25.408Z,13.53
2023-05-18T09:01:55.350Z,13.37
2023-05-18T09:04:22.846Z,13.15
2023-05-18T09:06:51.416Z,13.17
2023-05-18T09:09:18.991Z,13.14
2023-05-18T09:11:47.618Z,13.24
2023-05-18T09:14:14.782Z,13.53
2023-05-18T09:16:41.703Z,13.72
2023-05-18T09:19:08.726Z,13.93
2023-05-18T09:21:39.341Z,14.27
2023-05-18T09:24:06.729Z,14.48
2023-05-18T09:26:33.733Z,14.77
2023-05-18T09:29:00.715Z,15.04
2023-05-18T09:31:27.991Z,14.77
2023-05-18T09:33:55.373Z,14.77
2023-05-18T09:36:26.713Z,14.78
2023-05-18T09:38:53.786Z,14.72
2023-05-18T09:41:20.711Z,14.43
2023-05-18T09:43:51.587Z,14.01
2023-05-18T09:46:21.284Z,14.00
2023-05-18T09:48:53.290Z,13.89
2023-05-18T09:51:22.047Z,13.88
2023-05-18T09:53:59.336Z,13.84
2023-05-18T09:56:27.335Z,13.91
2023-05-18T09:58:54.549Z,13.97
2023-05-18T10:01:21.928Z,14.19
2023-05-18T10:03:50.078Z,14.04
2023-05-18T10:06:21.397Z,14.15
2023-05-18T10:08:48.719Z,14.43
2023-05-18T10:11:20.097Z,14.57
2023-05-18T10:13:47.429Z,14.84
2023-05-18T10:16:15.898Z,14.64
2023-05-18T10:18:43.291Z,14.75
2023-05-18T10:21:12.766Z,14.69
2023-05-18T10:23:41.755Z,14.68
2023-05-18T10:26:10.294Z,14.91
2023-05-18T10:28:47.601Z,15.21
2023-05-18T10:31:16.949Z,15.50
2023-05-18T10:33:44.835Z,15.69
2023-05-18T10:36:12.131Z,15.72
2023-05-18T10:38:43.705Z,15.63
2023-05-18T10:41:12.714Z,15.40
2023-05-18T10:43:43.082Z,15.44
2023-05-18T10:46:10.249Z,15.45
2023-05-18T10:48:41.121Z,15.61
2023-05-18T10:51:09.004Z,15.59
2023-05-18T10:53:37.007Z,15.39
2023-05-18T10:56:04.098Z,15.76
2023-05-18T10:58:32.087Z,15.95
2023-05-18T11:01:02.009Z,16.30
2023-05-18T11:03:29.388Z,16.38
2023-05-18T11:06:15.041Z,16.62
2023-05-18T11:08:50.881Z,16.74
2023-05-18T11:11:19.489Z,16.52
2023-05-18T11:13:51.556Z,16.08
2023-05-18T11:16:20.956Z,16.18
2023-05-18T11:18:50.813Z,15.83
2023-05-18T11:21:36.200Z,15.72
2023-05-18T11:24:24.182Z,15.78
2023-05-18T11:27:15.325Z,15.47
2023-05-18T11:29:57.732Z,15.32
2023-05-18T11:32:37.300Z,15.51
2023-05-18T11:35:08.935Z,15.62
2023-05-18T11:37:38.661Z,15.83
2023-05-18T11:40:11.452Z,15.64
2023-05-18T11:42:38.528Z,15.56
2023-05-18T11:45:13.075Z,15.74
2023-05-18T11:47:41.469Z,15.83
2023-05-18T11:50:12.104Z,15.81
2023-05-18T11:52:53.418Z,15.55
2023-05-18T11:55:21.382Z,15.71
2023-05-18T11:57:52.917Z,15.52
2023-05-18T12:00:21.229Z,15.15
2023-05-18T12:02:49.602Z,15.40
2023-05-18T12:05:17.555Z,15.43
2023-05-18T12:07:45.158Z,15.45
2023-05-18T12:10:17.410Z,15.39
2023-05-18T12:12:48.104Z,15.17
2023-05-18T12:15:16.990Z,15.09
2023-05-18T12:17:47.268Z,15.14
2023-05-18T12:20:17.487Z,15.01
2023-05-18T12:22:50.460Z,14.88
2023-05-18T12:25:17.426Z,14.90
2023-05-18T12:27:48.009Z,14.79
2023-05-18T12:30:20.011Z,14.73
2023-05-18T12:32:56.659Z,14.71
2023-05-18T12:35:29.305Z,14.71
2023-05-18T12:38:01.793Z,14.68
2023-05-18T12:40:42.899Z,14.78
2023-05-18T12:43:09.837Z,15.03
2023-05-18T12:45:36.714Z,14.86
2023-05-18T12:48:12.249Z,14.91
2023-05-18T12:50:51.018Z,14.71
2023-05-18T12:53:18.926Z,14.62
2023-05-18T12:55:45.844Z,14.59
2023-05-18T12:58:20.018Z,14.47
2023-05-18T13:00:48.748Z,14.47
2023-05-18T13:03:20.515Z,14.56
2023-05-18T13:06:09.849Z,14.64
2023-05-18T13:08:37.445Z,14.71
2023-05-18T13:11:14.213Z,14.82
2023-05-18T13:14:05.085Z,14.66
2023-05-18T13:16:35.081Z,14.71
2023-05-18T13:19:05.743Z,14.42
2023-05-18T13:21:34.587Z,14.45
2023-05-18T13:24:03.387Z,14.52
2023-05-18T13:26:31.306Z,14.38
2023-05-18T13:28:58.743Z,14.24
2023-05-18T13:31:25.691Z,14.18
2023-05-18T13:33:52.983Z,14.32
2023-05-18T13:36:19.854Z,14.46
2023-05-18T13:38:46.853Z,14.47
2023-05-18T13:41:16.848Z,14.41
2023-05-18T13:43:43.835Z,14.37
2023-05-18T13:46:10.745Z,14.03
2023-05-18T13:48:37.857Z,13.96
2023-05-18T13:51:04.866Z,13.77
2023-05-18T13:53:31.832Z,13.85
2023-05-18T13:55:58.850Z,13.84
2023-05-18T13:58:25.843Z,13.75
2023-05-18T14:00:54.648Z,13.70
2023-05-18T14:03:21.895Z,13.87
2023-05-18T14:05:49.007Z,13.90
2023-05-18T14:08:15.974Z,14.08
2023-05-18T14:10:42.906Z,13.89
2023-05-18T14:13:09.839Z,13.90
2023-05-18T14:15:36.829Z,13.99
2023-05-18T14:18:04.206Z,13.94
2023-05-18T14:20:31.463Z,13.88
2023-05-18T14:22:58.822Z,14.05
2023-05-18T14:25:26.344Z,14.01
2023-05-18T14:27:53.297Z,13.93
2023-05-18T14:30:20.260Z,13.87
2023-05-18T14:32:47.174Z,13.82
2023-05-18T14:35:14.104Z,13.90
2023-05-18T14:37:40.977Z,13.94
2023-05-18T14:40:08.926Z,13.85
2023-05-18T14:42:37.270Z,13.91
2023-05-18T14:45:05.126Z,14.00
2023-05-18T14:47:32.056Z,13.91
2023-05-18T14:49:58.952Z,14.13
2023-05-18T14:52:26.372Z,14.12
2023-05-18T14:54:53.252Z,14.26
2023-05-18T14:57:20.194Z,14.35
2023-05-18T14:59:47.045Z,14.49
2023-05-18T15:02:14.088Z,14.62
2023-05-18T15:04:41.110Z,14.60
2023-05-18T15:07:08.289Z,14.59
2023-05-18T15:09:35.137Z,14.47
2023-05-18T15:12:02.055Z,14.43
2023-05-18T15:14:29.024Z,14.26
2023-05-18T15:16:55.959Z,14.22
2023-05-18T15:19:22.899Z,14.23
2023-05-18T15:21:50.055Z,14.32
2023-05-18T15:24:16.909Z,14.32
2023-05-18T15:26:43.924Z,14.27
2023-05-18T15:29:10.935Z,14.23
2023-05-18T15:31:39.926Z,14.18
2023-05-18T15:34:06.936Z,14.16
2023-05-18T15:36:34.243Z,14.09
2023-05-18T15:39:04.636Z,13.91
2023-05-18T15:41:34.460Z,14.13
2023-05-18T15:44:02.161Z,14.21
2023-05-18T15:46:35.211Z,14.28
2023-05-18T15:49:02.694Z,14.23
2023-05-18T15:51:29.911Z,14.18
2023-05-18T15:53:56.850Z,14.30
2023-05-18T15:56:23.787Z,14.26
2023-05-18T15:58:50.759Z,14.24
2023-05-18T16:01:17.678Z,14.05
2023-05-18T16:03:44.932Z,14.22
2023-05-18T16:06:12.107Z,14.21
2023-05-18T16:08:39.050Z,14.19
2023-05-18T16:11:07.224Z,14.03
2023-05-18T16:13:34.218Z,13.95
2023-05-18T16:16:01.206Z,14.06
2023-05-18T16:18:28.130Z,14.13
2023-05-18T16:20:55.016Z,13.99
2023-05-18T16:23:21.870Z,13.92
2023-05-18T16:25:48.781Z,14.06
2023-05-18T16:28:15.644Z,14.12
2023-05-18T16:30:42.483Z,14.04
2023-05-18T16:33:09.408Z,13.95
2023-05-18T16:35:36.396Z,13.83
2023-05-18T16:38:03.257Z,13.85
2023-05-18T16:40:30.657Z,13.88
2023-05-18T16:42:57.887Z,13.88
2023-05-18T16:45:27.022Z,13.82
2023-05-18T16:47:54.132Z,13.73
2023-05-18T16:50:21.304Z,13.53
2023-05-18T16:52:48.237Z,13.57
2023-05-18T16:55:15.177Z,13.64
2023-05-18T16:57:43.591Z,13.59
2023-05-18T17:00:11.628Z,13.63
2023-05-18T17:02:39.291Z,13.59
2023-05-18T17:05:08.633Z,13.72
2023-05-18T17:07:36.581Z,13.77
2023-05-18T17:10:05.317Z,13.85
2023-05-18T17:12:32.599Z,13.91
2023-05-18T17:14:59.708Z,13.95
2023-05-18T17:17:26.711Z,13.86
2023-05-18T17:19:53.854Z,13.78
2023-05-18T17:22:20.740Z,13.84
2023-05-18T17:24:47.594Z,13.61
2023-05-18T17:27:14.522Z,13.63
2023-05-18T17:29:41.901Z,13.66
2023-05-18T17:32:08.774Z,13.68
2023-05-18T17:34:35.759Z,13.68
2023-05-18T17:37:02.657Z,13.69
2023-05-18T17:39:29.510Z,13.67
2023-05-18T17:41:56.610Z,13.57
2023-05-18T17:44:23.588Z,13.64
2023-05-18T17:46:51.114Z,13.56
2023-05-18T17:49:18.396Z,13.53
2023-05-18T17:51:45.918Z,13.60
2023-05-18T17:54:12.777Z,13.50
2023-05-18T17:56:39.753Z,13.55
2023-05-18T17:59:07.120Z,13.62
2023-05-18T18:01:35.187Z,13.39
2023-05-18T18:04:02.312Z,13.38
2023-05-18T18:06:29.358Z,13.44
2023-05-18T18:08:58.632Z,13.41
2023-05-18T18:11:26.965Z,13.31
2023-05-18T18:13:54.659Z,13.29
2023-05-18T18:16:22.473Z,13.27
2023-05-18T18:18:49.615Z,13.05
2023-05-18T18:21:16.530Z,13.12
2023-05-18T18:23:43.410Z,13.12
2023-05-18T18:26:10.363Z,13.05
2023-05-18T18:28:37.305Z,13.08
2023-05-18T18:31:04.624Z,13.04
2023-05-18T18:33:32.985Z,13.12
2023-05-18T18:36:00.113Z,13.18
2023-05-18T18:38:30.053Z,13.25
2023-05-18T18:41:01.735Z,12.98
2023-05-18T18:43:29.125Z,13.05
2023-05-18T18:45:57.433Z,12.99
2023-05-18T18:48:25.230Z,13.03
2023-05-18T18:50:52.756Z,13.13
2023-05-18T18:53:19.643Z,13.08
2023-05-18T18:55:46.526Z,13.04
2023-05-18T18:58:13.673Z,12.89
2023-05-18T19:00:40.542Z,12.93
2023-05-18T19:03:07.531Z,12.93
2023-05-18T19:05:34.665Z,12.89
2023-05-18T19:08:02.041Z,12.83
2023-05-18T19:10:29.007Z,12.88
2023-05-18T19:12:59.502Z,12.87
2023-05-18T19:15:26.583Z,12.81
2023-05-18T19:17:54.258Z,12.77
2023-05-18T19:20:21.890Z,12.77
2023-05-18T19:22:48.905Z,12.66
2023-05-18T19:25:16.045Z,12.63
2023-05-18T19:27:42.912Z,12.61
2023-05-18T19:30:11.512Z,12.56
2023-05-18T19:32:38.529Z,12.57
2023-05-18T19:35:05.575Z,12.56
2023-05-18T19:37:32.445Z,12.52
2023-05-18T19:39:59.355Z,12.52
2023-05-18T19:42:26.410Z,12.45
2023-05-18T19:44:53.266Z,12.45
2023-05-18T19:47:20.146Z,12.43
2023-05-18T19:49:47.070Z,12.43
2023-05-18T19:52:13.967Z,12.33
2023-05-18T19:54:40.935Z,12.42
2023-05-18T19:57:07.802Z,12.35
2023-05-18T19:59:34.736Z,12.39
2023-05-18T20:02:04.942Z,12.39
2023-05-18T20:04:33.759Z,12.38
2023-05-18T20:07:01.419Z,12.37
2023-05-18T20:09:29.256Z,12.36
2023-05-18T20:11:56.774Z,12.34
2023-05-18T20:14:23.957Z,12.33
2023-05-18T20:16:52.689Z,12.23
2023-05-18T20:19:19.848Z,12.09
2023-05-18T20:21:50.120Z,12.16
2023-05-18T20:24:17.014Z,12.09
2023-05-18T20:26:43.963Z,12.11
2023-05-18T20:29:11.049Z,12.19
2023-05-18T20:31:38.113Z,12.16
2023-05-18T20:34:06.529Z,12.19
2023-05-18T20:36:33.415Z,12.26
2023-05-18T20:39:00.413Z,12.22
2023-05-18T20:41:28.462Z,12.15
2023-05-18T20:43:55.387Z,12.18
2023-05-18T20:46:25.070Z,12.23
2023-05-18T20:48:57.700Z,12.17
2023-05-18T20:51:24.886Z,12.18
2023-05-18T20:53:52.086Z,12.12
2023-05-18T20:56:19.028Z,12.03
2023-05-18T20:58:50.263Z,12.08
2023-05-18T21:01:18.781Z,12.10
2023-05-18T21:03:46.049Z,12.04
2023-05-18T21:06:14.177Z,11.81
2023-05-18T21:08:41.568Z,11.98
2023-05-18T21:11:08.433Z,11.98
2023-05-18T21:13:37.241Z,12.06
2023-05-18T21:16:06.873Z,12.09
2023-05-18T21:18:34.761Z,12.09
2023-05-18T21:21:04.958Z,11.93
2023-05-18T21:23:32.093Z,11.94
2023-05-18T21:25:58.977Z,12.02
2023-05-18T21:28:25.850Z,11.94
2023-05-18T21:30:53.139Z,11.88
2023-05-18T21:33:21.293Z,11.94
2023-05-18T21:35:48.256Z,11.83
2023-05-18T21:38:15.095Z,11.82
2023-05-18T21:40:43.699Z,11.77
2023-05-18T21:43:11.054Z,11.78
2023-05-18T21:45:38.767Z,11.77
2023-05-18T21:48:06.293Z,11.81
2023-05-18T21:50:35.344Z,11.78
2023-05-18T21:53:03.535Z,11.83
2023-05-18T21:55:33.965Z,11.90
2023-05-18T21:58:01.078Z,11.86
2023-05-18T22:00:28.739Z,11.80
2023-05-18T22:02:55.828Z,11.81
2023-05-18T22:05:22.771Z,11.84
2023-05-18T22:07:49.814Z,11.81
2023-05-18T22:10:18.314Z,11.80
2023-05-18T22:12:45.520Z,11.73
2023-05-18T22:15:12.881Z,11.75
2023-05-18T22:17:40.565Z,11.80
2023-05-18T22:20:11.814Z,11.89
2023-05-18T22:22:40.502Z,11.87
2023-05-18T22:25:08.086Z,11.85
2023-05-18T22:27:36.862Z,11.80
2023-05-18T22:30:08.204Z,11.80
2023-05-18T22:32:35.226Z,11.71
2023-05-18T22:35:03.083Z,11.71
2023-05-18T22:37:29.942Z,11.77
2023-05-18T22:39:56.835Z,11.71
2023-05-18T22:42:23.689Z,11.67
2023-05-18T22:44:51.454Z,11.71
2023-05-18T22:47:21.574Z,11.68
2023-05-18T22:49:49.345Z,11.73
2023-05-18T22:52:18.665Z,11.70
2023-05-18T22:54:45.986Z,11.69
2023-05-18T22:57:13.306Z,11.64
2023-05-18T22:59:40.199Z,11.61
2023-05-18T23:02:07.301Z,11.64
2023-05-18T23:04:35.134Z,11.65
2023-05-18T23:07:04.254Z,11.64
2023-05-18T23:09:31.269Z,11.60
2023-05-18T23:11:59.759Z,11.46
2023-05-18T23:14:32.618Z,11.46
2023-05-18T23:17:00.762Z,11.48
2023-05-18T23:19:28.041Z,11.49
2023-05-18T23:21:55.799Z,11.53
2023-05-18T23:24:22.780Z,11.46
2023-05-18T23:26:49.649Z,11.43
2023-05-18T23:29:16.845Z,11.50
2023-05-18T23:31:43.753Z,11.44
2023-05-18T23:34:11.089Z,11.45
2023-05-18T23:36:39.871Z,11.44
2023-05-18T23:39:07.387Z,11.28
2023-05-18T23:41:36.281Z,11.37
2023-05-18T23:44:03.693Z,11.29
2023-05-18T23:46:32.044Z,11.16
2023-05-18T23:49:00.013Z,11.28
2023-05-18T23:51:32.182Z,11.17
2023-05-18T23:53:59.510Z,11.22
2023-05-18T23:56:26.789Z,11.17
2023-05-18T23:58:53.975Z,11.12
